sensor_id;sensor_type;location;lat;lon;timestamp;temperature;humidity
67942;SHT31;54731;42.600;23.476;2024-01-11T00:01:46;-5.52;77.80
67942;SHT31;54731;42.600;23.476;2024-01-11T00:04:12;-5.44;77.58
67942;SHT31;54731;42.600;23.476;2024-01-11T00:06:45;-5.48;77.19
67942;SHT31;54731;42.600;23.476;2024-01-11T00:09:10;-5.50;77.06
67942;SHT31;54731;42.600;23.476;2024-01-11T00:11:36;-5.53;77.23
67942;SHT31;54731;42.600;23.476;2024-01-11T00:14:01;-5.52;77.20
67942;SHT31;54731;42.600;23.476;2024-01-11T00:16:26;-5.53;77.16
67942;SHT31;54731;42.600;23.476;2024-01-11T00:18:52;-5.64;77.07
67942;SHT31;54731;42.600;23.476;2024-01-11T00:21:17;-5.59;77.16
67942;SHT31;54731;42.600;23.476;2024-01-11T00:23:42;-5.56;77.20
67942;SHT31;54731;42.600;23.476;2024-01-11T00:26:08;-5.58;77.46
67942;SHT31;54731;42.600;23.476;2024-01-11T00:28:33;-5.60;77.42
67942;SHT31;54731;42.600;23.476;2024-01-11T00:30:58;-5.62;77.48
67942;SHT31;54731;42.600;23.476;2024-01-11T00:33:23;-5.59;77.32
67942;SHT31;54731;42.600;23.476;2024-01-11T00:35:49;-5.60;77.16
67942;SHT31;54731;42.600;23.476;2024-01-11T00:38:14;-5.59;76.94
67942;SHT31;54731;42.600;23.476;2024-01-11T00:40:39;-5.64;76.91
67942;SHT31;54731;42.600;23.476;2024-01-11T00:43:05;-5.67;77.10
67942;SHT31;54731;42.600;23.476;2024-01-11T00:45:30;-5.74;77.15
67942;SHT31;54731;42.600;23.476;2024-01-11T00:47:55;-5.73;76.82
67942;SHT31;54731;42.600;23.476;2024-01-11T00:50:21;-5.73;76.80
67942;SHT31;54731;42.600;23.476;2024-01-11T00:52:46;-5.77;76.77
67942;SHT31;54731;42.600;23.476;2024-01-11T00:55:11;-5.83;76.98
67942;SHT31;54731;42.600;23.476;2024-01-11T00:57:37;-5.82;77.06
67942;SHT31;54731;42.600;23.476;2024-01-11T01:00:02;-5.94;77.54
67942;SHT31;54731;42.600;23.476;2024-01-11T01:02:28;-5.90;77.65
67942;SHT31;54731;42.600;23.476;2024-01-11T01:04:53;-5.90;77.45
67942;SHT31;54731;42.600;23.476;2024-01-11T01:07:18;-5.94;77.36
67942;SHT31;54731;42.600;23.476;2024-01-11T01:09:43;-5.91;77.35
67942;SHT31;54731;42.600;23.476;2024-01-11T01:12:09;-5.87;77.26
67942;SHT31;54731;42.600;23.476;2024-01-11T01:14:34;-5.87;77.26
67942;SHT31;54731;42.600;23.476;2024-01-11T01:16:59;-5.91;77.35
67942;SHT31;54731;42.600;23.476;2024-01-11T01:19:25;-5.97;77.41
67942;SHT31;54731;42.600;23.476;2024-01-11T01:21:50;-5.98;77.54
67942;SHT31;54731;42.600;23.476;2024-01-11T01:24:15;-6.01;77.44
67942;SHT31;54731;42.600;23.476;2024-01-11T01:26:40;-5.94;77.28
67942;SHT31;54731;42.600;23.476;2024-01-11T01:29:06;-5.97;77.33
67942;SHT31;54731;42.600;23.476;2024-01-11T01:31:31;-6.03;77.75
67942;SHT31;54731;42.600;23.476;2024-01-11T01:33:56;-6.03;77.96
67942;SHT31;54731;42.600;23.476;2024-01-11T01:36:22;-6.00;77.75
67942;SHT31;54731;42.600;23.476;2024-01-11T01:38:47;-6.05;77.89
67942;SHT31;54731;42.600;23.476;2024-01-11T01:41:12;-6.04;77.83
67942;SHT31;54731;42.600;23.476;2024-01-11T01:43:37;-6.05;77.52
67942;SHT31;54731;42.600;23.476;2024-01-11T01:46:03;-6.17;77.77
67942;SHT31;54731;42.600;23.476;2024-01-11T01:48:29;-6.14;77.80
67942;SHT31;54731;42.600;23.476;2024-01-11T01:50:55;-6.13;77.52
67942;SHT31;54731;42.600;23.476;2024-01-11T01:53:22;-6.11;77.43
67942;SHT31;54731;42.600;23.476;2024-01-11T01:55:48;-6.04;77.39
67942;SHT31;54731;42.600;23.476;2024-01-11T01:58:14;-6.14;77.50
67942;SHT31;54731;42.600;23.476;2024-01-11T02:00:41;-6.07;77.46
67942;SHT31;54731;42.600;23.476;2024-01-11T02:03:06;-6.10;77.59
67942;SHT31;54731;42.600;23.476;2024-01-11T02:05:31;-6.13;77.53
67942;SHT31;54731;42.600;23.476;2024-01-11T02:07:58;-6.14;77.46
67942;SHT31;54731;42.600;23.476;2024-01-11T02:10:24;-6.15;77.52
67942;SHT31;54731;42.600;23.476;2024-01-11T02:12:50;-6.17;77.52
67942;SHT31;54731;42.600;23.476;2024-01-11T02:15:15;-6.11;77.52
67942;SHT31;54731;42.600;23.476;2024-01-11T02:17:40;-6.10;77.69
67942;SHT31;54731;42.600;23.476;2024-01-11T02:20:06;-6.17;78.05
67942;SHT31;54731;42.600;23.476;2024-01-11T02:22:34;-6.11;78.40
67942;SHT31;54731;42.600;23.476;2024-01-11T02:25:00;-6.11;78.42
67942;SHT31;54731;42.600;23.476;2024-01-11T02:27:26;-6.13;78.65
67942;SHT31;54731;42.600;23.476;2024-01-11T02:29:51;-6.11;78.48
67942;SHT31;54731;42.600;23.476;2024-01-11T02:32:16;-6.10;78.48
67942;SHT31;54731;42.600;23.476;2024-01-11T02:34:42;-6.13;78.52
67942;SHT31;54731;42.600;23.476;2024-01-11T02:37:08;-6.18;78.60
67942;SHT31;54731;42.600;23.476;2024-01-11T02:39:33;-6.10;78.67
67942;SHT31;54731;42.600;23.476;2024-01-11T02:41:59;-6.07;78.64
67942;SHT31;54731;42.600;23.476;2024-01-11T02:44:25;-6.13;78.37
67942;SHT31;54731;42.600;23.476;2024-01-11T02:46:50;-6.11;78.40
67942;SHT31;54731;42.600;23.476;2024-01-11T02:49:16;-6.17;78.46
67942;SHT31;54731;42.600;23.476;2024-01-11T02:51:41;-6.22;78.53
67942;SHT31;54731;42.600;23.476;2024-01-11T02:54:06;-6.22;78.75
67942;SHT31;54731;42.600;23.476;2024-01-11T02:56:32;-6.31;78.85
67942;SHT31;54731;42.600;23.476;2024-01-11T02:58:57;-6.27;78.76
67942;SHT31;54731;42.600;23.476;2024-01-11T03:01:23;-6.27;78.51
67942;SHT31;54731;42.600;23.476;2024-01-11T03:03:48;-6.29;78.38
67942;SHT31;54731;42.600;23.476;2024-01-11T03:06:13;-6.31;78.34
67942;SHT31;54731;42.600;23.476;2024-01-11T03:08:39;-6.34;78.43
67942;SHT31;54731;42.600;23.476;2024-01-11T03:11:04;-6.32;78.41
67942;SHT31;54731;42.600;23.476;2024-01-11T03:13:29;-6.35;78.39
67942;SHT31;54731;42.600;23.476;2024-01-11T03:15:54;-6.34;78.37
67942;SHT31;54731;42.600;23.476;2024-01-11T03:18:20;-6.35;78.23
67942;SHT31;54731;42.600;23.476;2024-01-11T03:20:45;-6.37;78.20
67942;SHT31;54731;42.600;23.476;2024-01-11T03:23:10;-6.34;78.16
67942;SHT31;54731;42.600;23.476;2024-01-11T03:25:36;-6.35;78.24
67942;SHT31;54731;42.600;23.476;2024-01-11T03:28:01;-6.38;78.31
67942;SHT31;54731;42.600;23.476;2024-01-11T03:30:26;-6.35;78.43
67942;SHT31;54731;42.600;23.476;2024-01-11T03:32:52;-6.37;78.45
67942;SHT31;54731;42.600;23.476;2024-01-11T03:35:18;-6.38;78.50
67942;SHT31;54731;42.600;23.476;2024-01-11T03:37:44;-6.32;78.48
67942;SHT31;54731;42.600;23.476;2024-01-11T03:40:09;-6.32;78.39
67942;SHT31;54731;42.600;23.476;2024-01-11T03:42:35;-6.38;78.31
67942;SHT31;54731;42.600;23.476;2024-01-11T03:45:00;-6.38;78.43
67942;SHT31;54731;42.600;23.476;2024-01-11T03:47:25;-6.42;78.50
67942;SHT31;54731;42.600;23.476;2024-01-11T03:49:51;-6.46;78.56
67942;SHT31;54731;42.600;23.476;2024-01-11T03:52:16;-6.45;78.40
67942;SHT31;54731;42.600;23.476;2024-01-11T03:54:41;-6.46;78.35
67942;SHT31;54731;42.600;23.476;2024-01-11T03:57:07;-6.53;78.31
67942;SHT31;54731;42.600;23.476;2024-01-11T03:59:32;-6.53;78.41
67942;SHT31;54731;42.600;23.476;2024-01-11T04:01:57;-6.52;78.41
67942;SHT31;54731;42.600;23.476;2024-01-11T04:04:23;-6.52;78.09
67942;SHT31;54731;42.600;23.476;2024-01-11T04:06:48;-6.52;77.90
67942;SHT31;54731;42.600;23.476;2024-01-11T04:09:14;-6.58;77.91
67942;SHT31;54731;42.600;23.476;2024-01-11T04:11:39;-6.62;78.09
67942;SHT31;54731;42.600;23.476;2024-01-11T04:14:04;-6.58;78.14
67942;SHT31;54731;42.600;23.476;2024-01-11T04:16:30;-6.62;78.01
67942;SHT31;54731;42.600;23.476;2024-01-11T04:18:55;-6.62;78.03
67942;SHT31;54731;42.600;23.476;2024-01-11T04:21:24;-6.65;77.83
67942;SHT31;54731;42.600;23.476;2024-01-11T04:23:50;-6.64;77.84
67942;SHT31;54731;42.600;23.476;2024-01-11T04:26:16;-6.68;77.84
67942;SHT31;54731;42.600;23.476;2024-01-11T04:28:43;-6.68;77.96
67942;SHT31;54731;42.600;23.476;2024-01-11T04:31:08;-6.68;77.95
67942;SHT31;54731;42.600;23.476;2024-01-11T04:33:34;-6.68;78.01
67942;SHT31;54731;42.600;23.476;2024-01-11T04:35:59;-6.71;77.97
67942;SHT31;54731;42.600;23.476;2024-01-11T04:38:24;-6.72;78.19
67942;SHT31;54731;42.600;23.476;2024-01-11T04:40:49;-6.68;78.17
67942;SHT31;54731;42.600;23.476;2024-01-11T04:43:15;-6.69;78.12
67942;SHT31;54731;42.600;23.476;2024-01-11T04:45:40;-6.71;78.27
67942;SHT31;54731;42.600;23.476;2024-01-11T04:48:05;-6.72;78.47
67942;SHT31;54731;42.600;23.476;2024-01-11T04:50:31;-6.66;78.44
67942;SHT31;54731;42.600;23.476;2024-01-11T04:52:56;-6.71;78.72
67942;SHT31;54731;42.600;23.476;2024-01-11T04:55:21;-6.75;78.98
67942;SHT31;54731;42.600;23.476;2024-01-11T04:57:47;-6.76;79.01
67942;SHT31;54731;42.600;23.476;2024-01-11T05:00:12;-6.78;78.92
67942;SHT31;54731;42.600;23.476;2024-01-11T05:02:38;-6.78;78.97
67942;SHT31;54731;42.600;23.476;2024-01-11T05:05:03;-6.85;79.57
67942;SHT31;54731;42.600;23.476;2024-01-11T05:07:28;-6.82;79.75
67942;SHT31;54731;42.600;23.476;2024-01-11T05:09:54;-6.86;79.71
67942;SHT31;54731;42.600;23.476;2024-01-11T05:12:19;-6.88;79.61
67942;SHT31;54731;42.600;23.476;2024-01-11T05:14:44;-6.83;79.67
67942;SHT31;54731;42.600;23.476;2024-01-11T05:17:10;-6.88;79.71
67942;SHT31;54731;42.600;23.476;2024-01-11T05:19:35;-6.80;79.74
67942;SHT31;54731;42.600;23.476;2024-01-11T05:22:00;-6.83;79.82
67942;SHT31;54731;42.600;23.476;2024-01-11T05:24:25;-6.82;79.74
67942;SHT31;54731;42.600;23.476;2024-01-11T05:26:51;-6.79;79.62
67942;SHT31;54731;42.600;23.476;2024-01-11T05:29:16;-6.80;79.62
67942;SHT31;54731;42.600;23.476;2024-01-11T05:31:42;-6.79;79.65
67942;SHT31;54731;42.600;23.476;2024-01-11T05:34:07;-6.85;79.82
67942;SHT31;54731;42.600;23.476;2024-01-11T05:36:32;-6.93;80.32
67942;SHT31;54731;42.600;23.476;2024-01-11T05:38:57;-6.93;80.65
67942;SHT31;54731;42.600;23.476;2024-01-11T05:41:23;-6.90;80.73
67942;SHT31;54731;42.600;23.476;2024-01-11T05:43:48;-6.85;80.66
67942;SHT31;54731;42.600;23.476;2024-01-11T05:46:13;-6.88;80.59
67942;SHT31;54731;42.600;23.476;2024-01-11T05:48:39;-6.86;80.58
67942;SHT31;54731;42.600;23.476;2024-01-11T05:51:04;-6.88;80.50
67942;SHT31;54731;42.600;23.476;2024-01-11T05:53:30;-6.88;80.16
67942;SHT31;54731;42.600;23.476;2024-01-11T05:55:55;-6.82;79.96
67942;SHT31;54731;42.600;23.476;2024-01-11T05:58:20;-6.85;79.99
67942;SHT31;54731;42.600;23.476;2024-01-11T06:00:46;-6.88;79.84
67942;SHT31;54731;42.600;23.476;2024-01-11T06:03:12;-6.83;79.49
67942;SHT31;54731;42.600;23.476;2024-01-11T06:05:37;-6.88;79.40
67942;SHT31;54731;42.600;23.476;2024-01-11T06:08:03;-6.92;79.45
67942;SHT31;54731;42.600;23.476;2024-01-11T06:10:28;-6.90;79.42
67942;SHT31;54731;42.600;23.476;2024-01-11T06:12:53;-6.89;79.27
67942;SHT31;54731;42.600;23.476;2024-01-11T06:15:19;-6.90;79.10
67942;SHT31;54731;42.600;23.476;2024-01-11T06:17:44;-6.90;78.94
67942;SHT31;54731;42.600;23.476;2024-01-11T06:20:10;-6.92;78.90
67942;SHT31;54731;42.600;23.476;2024-01-11T06:22:35;-6.90;78.94
67942;SHT31;54731;42.600;23.476;2024-01-11T06:25:01;-6.89;78.93
67942;SHT31;54731;42.600;23.476;2024-01-11T06:27:26;-6.92;78.97
67942;SHT31;54731;42.600;23.476;2024-01-11T06:29:51;-6.92;78.90
67942;SHT31;54731;42.600;23.476;2024-01-11T06:32:17;-6.95;79.04
67942;SHT31;54731;42.600;23.476;2024-01-11T06:34:42;-6.89;79.00
67942;SHT31;54731;42.600;23.476;2024-01-11T06:37:07;-6.88;78.73
67942;SHT31;54731;42.600;23.476;2024-01-11T06:39:32;-6.89;78.60
67942;SHT31;54731;42.600;23.476;2024-01-11T06:41:58;-6.88;78.43
67942;SHT31;54731;42.600;23.476;2024-01-11T06:44:23;-6.86;78.45
67942;SHT31;54731;42.600;23.476;2024-01-11T06:46:48;-6.82;78.83
67942;SHT31;54731;42.600;23.476;2024-01-11T06:49:14;-6.85;79.15
67942;SHT31;54731;42.600;23.476;2024-01-11T06:51:39;-6.78;79.24
67942;SHT31;54731;42.600;23.476;2024-01-11T06:54:04;-6.78;79.03
67942;SHT31;54731;42.600;23.476;2024-01-11T06:56:30;-6.76;79.28
67942;SHT31;54731;42.600;23.476;2024-01-11T06:58:55;-6.78;79.53
67942;SHT31;54731;42.600;23.476;2024-01-11T07:01:20;-6.79;79.62
67942;SHT31;54731;42.600;23.476;2024-01-11T07:03:46;-6.78;79.64
67942;SHT31;54731;42.600;23.476;2024-01-11T07:06:11;-6.75;79.76
67942;SHT31;54731;42.600;23.476;2024-01-11T07:08:36;-6.66;79.95
67942;SHT31;54731;42.600;23.476;2024-01-11T07:11:02;-6.68;79.98
67942;SHT31;54731;42.600;23.476;2024-01-11T07:13:28;-6.64;80.06
67942;SHT31;54731;42.600;23.476;2024-01-11T07:15:54;-6.61;80.01
67942;SHT31;54731;42.600;23.476;2024-01-11T07:18:19;-6.62;80.05
67942;SHT31;54731;42.600;23.476;2024-01-11T07:20:44;-6.61;80.16
67942;SHT31;54731;42.600;23.476;2024-01-11T07:23:10;-6.58;80.19
67942;SHT31;54731;42.600;23.476;2024-01-11T07:25:35;-6.55;80.19
67942;SHT31;54731;42.600;23.476;2024-01-11T07:28:01;-6.53;80.22
67942;SHT31;54731;42.600;23.476;2024-01-11T07:30:26;-6.49;80.17
67942;SHT31;54731;42.600;23.476;2024-01-11T07:32:51;-6.48;80.32
67942;SHT31;54731;42.600;23.476;2024-01-11T07:35:17;-6.46;80.31
67942;SHT31;54731;42.600;23.476;2024-01-11T07:37:42;-6.44;80.41
67942;SHT31;54731;42.600;23.476;2024-01-11T07:40:08;-6.38;80.34
67942;SHT31;54731;42.600;23.476;2024-01-11T07:42:33;-6.35;80.29
67942;SHT31;54731;42.600;23.476;2024-01-11T07:44:59;-6.35;80.33
67942;SHT31;54731;42.600;23.476;2024-01-11T07:47:24;-6.32;80.40
67942;SHT31;54731;42.600;23.476;2024-01-11T07:49:49;-6.32;80.49
67942;SHT31;54731;42.600;23.476;2024-01-11T07:52:14;-6.29;80.58
67942;SHT31;54731;42.600;23.476;2024-01-11T07:54:40;-6.39;81.85
67942;SHT31;54731;42.600;23.476;2024-01-11T07:57:05;-6.35;81.92
67942;SHT31;54731;42.600;23.476;2024-01-11T07:59:33;-6.28;81.75
67942;SHT31;54731;42.600;23.476;2024-01-11T08:01:58;-6.24;81.67
67942;SHT31;54731;42.600;23.476;2024-01-11T08:04:24;-6.15;81.51
67942;SHT31;54731;42.600;23.476;2024-01-11T08:06:49;-6.15;81.42
67942;SHT31;54731;42.600;23.476;2024-01-11T08:09:14;-6.11;81.44
67942;SHT31;54731;42.600;23.476;2024-01-11T08:11:40;-6.03;81.22
67942;SHT31;54731;42.600;23.476;2024-01-11T08:14:05;-6.03;81.05
67942;SHT31;54731;42.600;23.476;2024-01-11T08:16:30;-6.00;81.06
67942;SHT31;54731;42.600;23.476;2024-01-11T08:18:56;-5.94;80.89
67942;SHT31;54731;42.600;23.476;2024-01-11T08:21:21;-6.08;80.74
67942;SHT31;54731;42.600;23.476;2024-01-11T08:23:46;-6.28;80.73
67942;SHT31;54731;42.600;23.476;2024-01-11T08:26:12;-6.39;81.41
67942;SHT31;54731;42.600;23.476;2024-01-11T08:28:38;-6.31;81.45
67942;SHT31;54731;42.600;23.476;2024-01-11T08:31:03;-6.18;81.15
67942;SHT31;54731;42.600;23.476;2024-01-11T08:33:28;-6.11;81.05
67942;SHT31;54731;42.600;23.476;2024-01-11T08:35:54;-5.98;80.90
67942;SHT31;54731;42.600;23.476;2024-01-11T08:38:19;-5.86;80.39
67942;SHT31;54731;42.600;23.476;2024-01-11T08:40:44;-5.86;80.40
67942;SHT31;54731;42.600;23.476;2024-01-11T08:43:09;-5.84;80.50
67942;SHT31;54731;42.600;23.476;2024-01-11T08:45:35;-5.80;80.61
67942;SHT31;54731;42.600;23.476;2024-01-11T08:48:00;-5.72;80.57
67942;SHT31;54731;42.600;23.476;2024-01-11T08:50:25;-5.67;80.53
67942;SHT31;54731;42.600;23.476;2024-01-11T08:52:51;-5.62;80.41
67942;SHT31;54731;42.600;23.476;2024-01-11T08:55:16;-5.60;80.40
67942;SHT31;54731;42.600;23.476;2024-01-11T08:57:41;-5.55;80.50
67942;SHT31;54731;42.600;23.476;2024-01-11T09:00:07;-5.50;80.88
67942;SHT31;54731;42.600;23.476;2024-01-11T09:02:32;-5.48;80.84
67942;SHT31;54731;42.600;23.476;2024-01-11T09:04:58;-5.63;81.02
67942;SHT31;54731;42.600;23.476;2024-01-11T09:07:23;-5.64;81.38
67942;SHT31;54731;42.600;23.476;2024-01-11T09:09:48;-5.66;80.93
67942;SHT31;54731;42.600;23.476;2024-01-11T09:12:14;-5.73;81.05
67942;SHT31;54731;42.600;23.476;2024-01-11T09:14:39;-5.63;81.05
67942;SHT31;54731;42.600;23.476;2024-01-11T09:17:04;-5.56;80.82
67942;SHT31;54731;42.600;23.476;2024-01-11T09:19:30;-5.42;80.71
67942;SHT31;54731;42.600;23.476;2024-01-11T09:21:55;-5.38;80.58
67942;SHT31;54731;42.600;23.476;2024-01-11T09:24:21;-5.28;80.53
67942;SHT31;54731;42.600;23.476;2024-01-11T09:26:46;-5.23;80.46
67942;SHT31;54731;42.600;23.476;2024-01-11T09:29:11;-5.13;80.41
67942;SHT31;54731;42.600;23.476;2024-01-11T09:31:37;-5.02;80.22
67942;SHT31;54731;42.600;23.476;2024-01-11T09:34:02;-4.94;80.02
67942;SHT31;54731;42.600;23.476;2024-01-11T09:36:27;-4.85;79.94
67942;SHT31;54731;42.600;23.476;2024-01-11T09:38:53;-4.81;79.96
67942;SHT31;54731;42.600;23.476;2024-01-11T09:41:18;-4.67;79.66
67942;SHT31;54731;42.600;23.476;2024-01-11T09:43:43;-4.60;78.79
67942;SHT31;54731;42.600;23.476;2024-01-11T09:46:11;-4.52;78.74
67942;SHT31;54731;42.600;23.476;2024-01-11T09:48:42;-4.29;79.41
67942;SHT31;54731;42.600;23.476;2024-01-11T09:51:10;-4.02;80.40
67942;SHT31;54731;42.600;23.476;2024-01-11T09:53:36;-3.98;78.77
67942;SHT31;54731;42.600;23.476;2024-01-11T09:56:06;-3.93;77.80
67942;SHT31;54731;42.600;23.476;2024-01-11T09:58:34;-3.89;76.96
67942;SHT31;54731;42.600;23.476;2024-01-11T10:00:59;-3.95;76.63
67942;SHT31;54731;42.600;23.476;2024-01-11T10:03:25;-3.89;76.41
67942;SHT31;54731;42.600;23.476;2024-01-11T10:05:50;-3.81;76.25
67942;SHT31;54731;42.600;23.476;2024-01-11T10:08:19;-3.67;75.82
67942;SHT31;54731;42.600;23.476;2024-01-11T10:10:46;-3.62;75.41
67942;SHT31;54731;42.600;23.476;2024-01-11T10:13:11;-3.59;75.06
67942;SHT31;54731;42.600;23.476;2024-01-11T10:15:36;-3.54;74.94
67942;SHT31;54731;42.600;23.476;2024-01-11T10:18:02;-3.41;74.42
67942;SHT31;54731;42.600;23.476;2024-01-11T10:20:27;-3.40;74.10
67942;SHT31;54731;42.600;23.476;2024-01-11T10:22:53;-3.37;74.17
67942;SHT31;54731;42.600;23.476;2024-01-11T10:25:18;-3.36;73.57
67942;SHT31;54731;42.600;23.476;2024-01-11T10:27:45;-3.33;73.33
67942;SHT31;54731;42.600;23.476;2024-01-11T10:30:11;-3.26;73.29
67942;SHT31;54731;42.600;23.476;2024-01-11T10:32:37;-3.18;73.44
67942;SHT31;54731;42.600;23.476;2024-01-11T10:35:02;-3.07;73.43
67942;SHT31;54731;42.600;23.476;2024-01-11T10:37:29;-2.90;73.34
67942;SHT31;54731;42.600;23.476;2024-01-11T10:39:56;-2.82;73.33
67942;SHT31;54731;42.600;23.476;2024-01-11T10:42:24;-2.66;73.72
67942;SHT31;54731;42.600;23.476;2024-01-11T10:44:54;-2.53;73.67
67942;SHT31;54731;42.600;23.476;2024-01-11T10:47:21;-2.44;73.30
67942;SHT31;54731;42.600;23.476;2024-01-11T10:49:50;-2.35;72.84
67942;SHT31;54731;42.600;23.476;2024-01-11T10:52:19;-2.37;72.81
67942;SHT31;54731;42.600;23.476;2024-01-11T10:54:48;-2.28;73.32
67942;SHT31;54731;42.600;23.476;2024-01-11T10:57:15;-2.32;72.91
67942;SHT31;54731;42.600;23.476;2024-01-11T10:59:41;-2.51;72.55
67942;SHT31;54731;42.600;23.476;2024-01-11T11:02:07;-2.39;72.48
67942;SHT31;54731;42.600;23.476;2024-01-11T11:04:33;-2.21;72.34
67942;SHT31;54731;42.600;23.476;2024-01-11T11:07:00;-2.02;71.91
67942;SHT31;54731;42.600;23.476;2024-01-11T11:09:27;-1.87;71.82
67942;SHT31;54731;42.600;23.476;2024-01-11T11:11:58;-1.73;71.98
67942;SHT31;54731;42.600;23.476;2024-01-11T11:14:24;-1.71;71.19
67942;SHT31;54731;42.600;23.476;2024-01-11T11:16:51;-1.64;71.08
67942;SHT31;54731;42.600;23.476;2024-01-11T11:19:17;-1.50;71.51
67942;SHT31;54731;42.600;23.476;2024-01-11T11:21:45;-1.49;71.12
67942;SHT31;54731;42.600;23.476;2024-01-11T11:24:11;-1.43;71.69
67942;SHT31;54731;42.600;23.476;2024-01-11T11:26:36;-1.29;71.58
67942;SHT31;54731;42.600;23.476;2024-01-11T11:29:03;-1.25;71.19
67942;SHT31;54731;42.600;23.476;2024-01-11T11:31:41;-1.23;70.70
67942;SHT31;54731;42.600;23.476;2024-01-11T11:34:07;-1.19;70.86
67942;SHT31;54731;42.600;23.476;2024-01-11T11:36:35;-1.03;69.92
67942;SHT31;54731;42.600;23.476;2024-01-11T11:39:01;-0.98;68.41
67942;SHT31;54731;42.600;23.476;2024-01-11T11:41:27;-0.87;68.12
67942;SHT31;54731;42.600;23.476;2024-01-11T11:43:53;-0.71;67.38
67942;SHT31;54731;42.600;23.476;2024-01-11T11:46:19;-0.56;67.72
67942;SHT31;54731;42.600;23.476;2024-01-11T11:48:51;-0.53;66.78
67942;SHT31;54731;42.600;23.476;2024-01-11T11:51:18;-0.48;66.12
67942;SHT31;54731;42.600;23.476;2024-01-11T11:53:49;-0.51;65.76
67942;SHT31;54731;42.600;23.476;2024-01-11T11:56:20;-0.60;65.85
67942;SHT31;54731;42.600;23.476;2024-01-11T11:58:47;-0.48;65.92
67942;SHT31;54731;42.600;23.476;2024-01-11T12:01:14;-0.53;65.75
67942;SHT31;54731;42.600;23.476;2024-01-11T12:03:44;-0.24;65.92
67942;SHT31;54731;42.600;23.476;2024-01-11T12:06:10;-0.02;65.98
67942;SHT31;54731;42.600;23.476;2024-01-11T12:08:36;0.03;64.13
67942;SHT31;54731;42.600;23.476;2024-01-11T12:11:02;0.03;63.55
67942;SHT31;54731;42.600;23.476;2024-01-11T12:13:28;0.11;63.93
67942;SHT31;54731;42.600;23.476;2024-01-11T12:15:53;0.27;63.54
67942;SHT31;54731;42.600;23.476;2024-01-11T12:18:19;0.25;63.04
67942;SHT31;54731;42.600;23.476;2024-01-11T12:20:45;0.27;62.22
67942;SHT31;54731;42.600;23.476;2024-01-11T12:23:10;0.37;62.74
67942;SHT31;54731;42.600;23.476;2024-01-11T12:25:36;0.37;62.55
67942;SHT31;54731;42.600;23.476;2024-01-11T12:28:02;0.25;62.97
67942;SHT31;54731;42.600;23.476;2024-01-11T12:30:27;0.28;63.25
67942;SHT31;54731;42.600;23.476;2024-01-11T12:32:56;0.32;63.47
67942;SHT31;54731;42.600;23.476;2024-01-11T12:35:22;0.32;63.94
67942;SHT31;54731;42.600;23.476;2024-01-11T12:38:04;0.38;64.11
67942;SHT31;54731;42.600;23.476;2024-01-11T12:40:35;0.40;63.39
67942;SHT31;54731;42.600;23.476;2024-01-11T12:43:01;0.35;63.82
67942;SHT31;54731;42.600;23.476;2024-01-11T12:45:26;0.38;63.69
67942;SHT31;54731;42.600;23.476;2024-01-11T12:47:52;0.37;63.28
67942;SHT31;54731;42.600;23.476;2024-01-11T12:50:17;0.27;63.46
67942;SHT31;54731;42.600;23.476;2024-01-11T12:52:43;0.22;63.68
67942;SHT31;54731;42.600;23.476;2024-01-11T12:55:17;0.18;64.29
67942;SHT31;54731;42.600;23.476;2024-01-11T12:57:43;0.17;64.86
67942;SHT31;54731;42.600;23.476;2024-01-11T13:00:10;0.13;65.29
67942;SHT31;54731;42.600;23.476;2024-01-11T13:02:35;0.01;65.11
67942;SHT31;54731;42.600;23.476;2024-01-11T13:05:00;-0.06;66.04
67942;SHT31;54731;42.600;23.476;2024-01-11T13:07:26;-0.13;67.02
67942;SHT31;54731;42.600;23.476;2024-01-11T13:09:51;-0.11;67.40
67942;SHT31;54731;42.600;23.476;2024-01-11T13:12:16;-0.17;66.39
67942;SHT31;54731;42.600;23.476;2024-01-11T13:14:42;-0.16;66.71
67942;SHT31;54731;42.600;23.476;2024-01-11T13:17:07;-0.10;66.77
67942;SHT31;54731;42.600;23.476;2024-01-11T13:19:32;-0.16;66.66
67942;SHT31;54731;42.600;23.476;2024-01-11T13:21:58;-0.18;66.73
67942;SHT31;54731;42.600;23.476;2024-01-11T13:24:23;-0.21;67.40
67942;SHT31;54731;42.600;23.476;2024-01-11T13:26:48;-0.17;67.24
67942;SHT31;54731;42.600;23.476;2024-01-11T13:29:13;-0.14;67.72
67942;SHT31;54731;42.600;23.476;2024-01-11T13:31:39;-0.14;68.20
67942;SHT31;54731;42.600;23.476;2024-01-11T13:34:04;-0.13;68.41
67942;SHT31;54731;42.600;23.476;2024-01-11T13:36:29;-0.10;68.41
67942;SHT31;54731;42.600;23.476;2024-01-11T13:38:55;-0.13;68.50
67942;SHT31;54731;42.600;23.476;2024-01-11T13:41:20;-0.10;68.54
67942;SHT31;54731;42.600;23.476;2024-01-11T13:43:45;-0.17;68.72
67942;SHT31;54731;42.600;23.476;2024-01-11T13:46:11;-0.16;68.99
67942;SHT31;54731;42.600;23.476;2024-01-11T13:48:36;-0.23;69.44
67942;SHT31;54731;42.600;23.476;2024-01-11T13:51:02;-0.21;69.59
67942;SHT31;54731;42.600;23.476;2024-01-11T13:53:27;-0.26;69.67
67942;SHT31;54731;42.600;23.476;2024-01-11T13:55:52;-0.40;70.29
67942;SHT31;54731;42.600;23.476;2024-01-11T13:58:17;-0.40;70.48
67942;SHT31;54731;42.600;23.476;2024-01-11T14:00:44;-0.40;70.38
67942;SHT31;54731;42.600;23.476;2024-01-11T14:03:09;-0.41;70.42
67942;SHT31;54731;42.600;23.476;2024-01-11T14:05:36;-0.38;70.35
67942;SHT31;54731;42.600;23.476;2024-01-11T14:08:01;-0.40;70.51
67942;SHT31;54731;42.600;23.476;2024-01-11T14:10:27;-0.34;70.09
67942;SHT31;54731;42.600;23.476;2024-01-11T14:12:52;-0.36;70.24
67942;SHT31;54731;42.600;23.476;2024-01-11T14:15:18;-0.37;70.33
67942;SHT31;54731;42.600;23.476;2024-01-11T14:17:43;-0.30;69.87
67942;SHT31;54731;42.600;23.476;2024-01-11T14:20:09;-0.37;70.12
67942;SHT31;54731;42.600;23.476;2024-01-11T14:22:34;-0.36;70.12
67942;SHT31;54731;42.600;23.476;2024-01-11T14:25:00;-0.38;70.27
67942;SHT31;54731;42.600;23.476;2024-01-11T14:27:25;-0.37;70.72
67942;SHT31;54731;42.600;23.476;2024-01-11T14:29:50;-0.38;70.73
67942;SHT31;54731;42.600;23.476;2024-01-11T14:32:16;-0.41;70.69
67942;SHT31;54731;42.600;23.476;2024-01-11T14:34:42;-0.48;70.80
67942;SHT31;54731;42.600;23.476;2024-01-11T14:37:08;-0.61;71.30
67942;SHT31;54731;42.600;23.476;2024-01-11T14:39:33;-0.64;71.50
67942;SHT31;54731;42.600;23.476;2024-01-11T14:41:58;-0.70;71.68
67942;SHT31;54731;42.600;23.476;2024-01-11T14:44:24;-0.71;71.83
67942;SHT31;54731;42.600;23.476;2024-01-11T14:46:49;-0.72;71.77
67942;SHT31;54731;42.600;23.476;2024-01-11T14:49:14;-0.74;71.92
67942;SHT31;54731;42.600;23.476;2024-01-11T14:51:40;-0.82;72.16
67942;SHT31;54731;42.600;23.476;2024-01-11T14:54:05;-0.80;72.02
67942;SHT31;54731;42.600;23.476;2024-01-11T14:56:30;-0.81;71.95
67942;SHT31;54731;42.600;23.476;2024-01-11T14:58:56;-0.82;71.89
67942;SHT31;54731;42.600;23.476;2024-01-11T15:01:21;-0.87;72.13
67942;SHT31;54731;42.600;23.476;2024-01-11T15:03:46;-0.91;72.22
67942;SHT31;54731;42.600;23.476;2024-01-11T15:06:12;-0.95;72.37
67942;SHT31;54731;42.600;23.476;2024-01-11T15:08:37;-0.98;72.46